createdAt,value
2023-03-16T00:00:09.927Z,3.20
2023-03-16T00:02:37.896Z,3.53
2023-03-16T00:05:08.038Z,2.63
2023-03-16T00:07:36.523Z,2.65
2023-03-16T00:10:05.984Z,2.95
2023-03-16T00:12:34.812Z,2.53
2023-03-16T00:15:04.646Z,2.95
2023-03-16T00:17:32.579Z,4.00
2023-03-16T00:20:06.465Z,5.03
2023-03-16T00:22:36.028Z,2.90
2023-03-16T00:25:04.538Z,3.33
2023-03-16T00:27:32.739Z,2.42
2023-03-16T00:30:03.549Z,4.00
2023-03-16T00:32:33.962Z,2.95
2023-03-16T00:35:02.900Z,3.65
2023-03-16T00:37:32.693Z,1.92
2023-03-16T00:40:02.177Z,3.05
2023-03-16T00:42:31.430Z,2.42
2023-03-16T00:45:01.610Z,2.70
2023-03-16T00:47:31.649Z,2.10
2023-03-16T00:50:00.085Z,2.40
2023-03-16T00:52:30.133Z,1.45
2023-03-16T00:54:59.151Z,2.13
2023-03-16T00:57:30.175Z,3.65
2023-03-16T00:59:59.318Z,4.30
2023-03-16T01:02:27.975Z,2.10
2023-03-16T01:04:55.883Z,2.40
2023-03-16T01:07:23.863Z,1.85
2023-03-16T01:09:52.304Z,3.03
2023-03-16T01:12:21.359Z,3.25
2023-03-16T01:14:50.745Z,2.33
2023-03-16T01:17:20.701Z,3.38
2023-03-16T01:19:51.409Z,2.28
2023-03-16T01:22:22.094Z,3.83
2023-03-16T01:24:50.166Z,2.67
2023-03-16T01:27:18.084Z,2.50
2023-03-16T01:29:46.073Z,1.85
2023-03-16T01:32:18.516Z,2.17
2023-03-16T01:34:47.368Z,2.60
2023-03-16T01:37:17.890Z,1.73
2023-03-16T01:39:53.882Z,2.50
2023-03-16T01:42:21.809Z,2.55
2023-03-16T01:44:56.066Z,2.15
2023-03-16T01:47:29.997Z,2.58
2023-03-16T01:49:58.438Z,2.63
2023-03-16T01:52:34.502Z,3.75
2023-03-16T01:55:06.308Z,2.78
2023-03-16T01:57:36.955Z,3.13
2023-03-16T02:00:10.725Z,5.57
2023-03-16T02:02:56.249Z,2.40
2023-03-16T02:05:36.847Z,2.33
2023-03-16T02:08:06.482Z,2.20
2023-03-16T02:10:36.045Z,2.70
2023-03-16T02:13:05.145Z,2.70
2023-03-16T02:15:35.969Z,1.83
2023-03-16T02:18:07.659Z,3.47
2023-03-16T02:20:43.449Z,2.03
2023-03-16T02:23:18.401Z,2.70
2023-03-16T02:25:54.089Z,1.95
2023-03-16T02:28:29.191Z,2.65
2023-03-16T02:30:58.974Z,2.17
2023-03-16T02:33:27.485Z,3.08
2023-03-16T02:35:58.991Z,2.47
2023-03-16T02:38:27.539Z,2.00
2023-03-16T02:41:00.616Z,1.67
2023-03-16T02:43:34.957Z,2.17
2023-03-16T02:46:19.303Z,2.88
2023-03-16T02:48:56.331Z,1.75
2023-03-16T02:51:24.344Z,2.28
2023-03-16T02:53:52.577Z,2.47
2023-03-16T02:56:26.633Z,2.15
2023-03-16T02:58:54.823Z,1.83
2023-03-16T03:01:24.510Z,1.77
2023-03-16T03:03:52.393Z,1.80
2023-03-16T03:06:22.146Z,2.20
2023-03-16T03:08:51.837Z,1.63
2023-03-16T03:11:22.962Z,2.15
2023-03-16T03:13:50.956Z,2.20
2023-03-16T03:16:24.436Z,1.45
2023-03-16T03:18:53.636Z,1.40
2023-03-16T03:21:24.254Z,2.00
2023-03-16T03:23:52.888Z,1.67
2023-03-16T03:26:20.980Z,1.95
2023-03-16T03:28:50.053Z,1.73
2023-03-16T03:31:19.710Z,2.08
2023-03-16T03:33:49.527Z,1.40
2023-03-16T03:36:20.138Z,1.85
2023-03-16T03:38:49.603Z,1.50
2023-03-16T03:41:19.389Z,1.98
2023-03-16T03:43:47.869Z,1.25
2023-03-16T03:46:19.038Z,2.35
2023-03-16T03:48:48.533Z,1.77
2023-03-16T03:51:16.602Z,2.25
2023-03-16T03:53:47.484Z,1.58
2023-03-16T03:56:22.595Z,2.47
2023-03-16T03:58:50.808Z,2.17
2023-03-16T04:01:29.594Z,1.83
2023-03-16T04:03:58.885Z,2.33
2023-03-16T04:06:27.107Z,1.83
2023-03-16T04:08:56.229Z,3.08
2023-03-16T04:11:27.434Z,2.25
2023-03-16T04:13:55.350Z,2.35
2023-03-16T04:16:26.944Z,1.75
2023-03-16T04:18:59.277Z,2.90
2023-03-16T04:21:27.502Z,1.80
2023-03-16T04:23:55.463Z,3.05
2023-03-16T04:26:31.314Z,2.72
2023-03-16T04:28:59.552Z,1.90
2023-03-16T04:31:27.905Z,3.72
2023-03-16T04:33:56.113Z,1.90
2023-03-16T04:36:26.431Z,2.25
2023-03-16T04:38:55.748Z,1.98
2023-03-16T04:41:24.459Z,2.30
2023-03-16T04:44:00.644Z,1.48
2023-03-16T04:46:29.490Z,1.50
2023-03-16T04:48:59.771Z,1.73
2023-03-16T04:51:31.215Z,1.83
2023-03-16T04:54:05.775Z,2.95
2023-03-16T04:56:41.396Z,3.20
2023-03-16T04:59:16.203Z,2.45
2023-03-16T05:01:53.619Z,2.53
2023-03-16T05:04:24.508Z,2.00
2023-03-16T05:06:54.129Z,2.47
2023-03-16T05:09:26.717Z,2.05
2023-03-16T05:11:54.743Z,3.03
2023-03-16T05:14:22.910Z,1.85
2023-03-16T05:17:14.577Z,3.08
2023-03-16T05:19:43.317Z,3.05
2023-03-16T05:22:13.211Z,1.40
2023-03-16T05:24:52.432Z,2.17
2023-03-16T05:27:21.337Z,2.42
2023-03-16T05:29:49.240Z,2.50
2023-03-16T05:32:17.636Z,3.15
2023-03-16T05:34:47.025Z,3.60
2023-03-16T05:37:19.345Z,2.40
2023-03-16T05:39:47.748Z,3.33
2023-03-16T05:42:15.709Z,2.85
2023-03-16T05:44:50.335Z,3.00
2023-03-16T05:47:28.240Z,2.53
2023-03-16T05:49:58.549Z,2.70
2023-03-16T05:52:34.844Z,2.28
2023-03-16T05:55:10.701Z,1.88
2023-03-16T05:57:39.058Z,2.03
2023-03-16T06:00:14.472Z,1.40
2023-03-16T06:02:49.325Z,1.38
2023-03-16T06:05:18.958Z,2.08
2023-03-16T06:07:50.155Z,2.03
2023-03-16T06:10:19.448Z,1.90
2023-03-16T06:12:47.716Z,1.60
2023-03-16T06:15:15.869Z,2.03
2023-03-16T06:17:43.988Z,2.05
2023-03-16T06:20:14.242Z,2.35
2023-03-16T06:22:44.484Z,1.77
2023-03-16T06:25:15.420Z,1.70
2023-03-16T06:27:44.884Z,2.53
2023-03-16T06:30:17.664Z,1.67
2023-03-16T06:32:46.359Z,1.75
2023-03-16T06:35:15.465Z,3.78
2023-03-16T06:37:50.453Z,2.22
2023-03-16T06:40:52.893Z,2.00
2023-03-16T06:43:22.445Z,2.05
2023-03-16T06:45:51.457Z,2.20
2023-03-16T06:48:19.748Z,2.55
2023-03-16T06:50:50.904Z,3.33
2023-03-16T06:53:23.709Z,2.05
2023-03-16T06:55:54.088Z,1.95
2023-03-16T06:58:22.246Z,2.42
2023-03-16T07:00:50.452Z,1.80
2023-03-16T07:03:21.565Z,1.50
2023-03-16T07:05:59.665Z,1.58
2023-03-16T07:08:29.283Z,2.42
2023-03-16T07:11:01.411Z,2.70
2023-03-16T07:13:29.516Z,1.95
2023-03-16T07:15:57.474Z,1.83
2023-03-16T07:18:26.933Z,2.40
2023-03-16T07:20:56.123Z,2.70
2023-03-16T07:23:27.234Z,1.90
2023-03-16T07:26:03.548Z,2.15
2023-03-16T07:28:33.438Z,2.40
2023-03-16T07:31:04.453Z,1.27
2023-03-16T07:33:38.611Z,1.27
2023-03-16T07:36:11.646Z,1.90
2023-03-16T07:38:45.553Z,3.08
2023-03-16T07:41:15.966Z,1.92
2023-03-16T07:43:49.955Z,1.23
2023-03-16T07:46:18.399Z,2.00
2023-03-16T07:48:46.842Z,1.88
2023-03-16T07:51:15.653Z,2.10
2023-03-16T07:53:48.174Z,2.72
2023-03-16T07:56:36.165Z,1.40
2023-03-16T07:59:12.083Z,2.90
2023-03-16T08:01:40.013Z,2.40
2023-03-16T08:04:07.995Z,2.35
2023-03-16T08:06:36.081Z,2.20
2023-03-16T08:09:05.788Z,2.30
2023-03-16T08:11:38.625Z,2.80
2023-03-16T08:14:07.043Z,1.73
2023-03-16T08:16:56.610Z,2.88
2023-03-16T08:19:26.309Z,2.40
2023-03-16T08:22:01.684Z,3.15
2023-03-16T08:24:38.369Z,2.88
2023-03-16T08:27:09.850Z,2.65
2023-03-16T08:29:40.675Z,2.55
2023-03-16T08:32:13.382Z,3.35
2023-03-16T08:34:47.996Z,2.85
2023-03-16T08:37:19.399Z,2.97
2023-03-16T08:39:51.565Z,1.88
2023-03-16T08:42:21.313Z,2.55
2023-03-16T08:44:55.361Z,3.05
2023-03-16T08:47:24.309Z,2.00
2023-03-16T08:49:52.252Z,3.10
2023-03-16T08:52:20.933Z,2.28
2023-03-16T08:55:02.286Z,3.13
2023-03-16T08:57:33.723Z,1.88
2023-03-16T09:00:04.385Z,1.33
2023-03-16T09:02:33.088Z,2.35
2023-03-16T09:05:00.971Z,2.85
2023-03-16T09:07:29.147Z,2.45
2023-03-16T09:09:57.113Z,1.90
2023-03-16T09:12:25.218Z,1.48
2023-03-16T09:14:55.243Z,1.75
2023-03-16T09:17:23.172Z,2.20
2023-03-16T09:19:55.009Z,4.00
2023-03-16T09:22:25.299Z,1.30
2023-03-16T09:24:53.281Z,1.83
2023-03-16T09:27:22.685Z,1.73
2023-03-16T09:29:50.929Z,2.33
2023-03-16T09:32:20.497Z,1.55
2023-03-16T09:34:48.574Z,1.40
2023-03-16T09:37:16.419Z,1.92
2023-03-16T09:39:45.592Z,1.90
2023-03-16T09:42:19.601Z,1.75
2023-03-16T09:44:56.874Z,1.45
2023-03-16T09:47:28.987Z,1.90
2023-03-16T09:50:00.949Z,1.55
2023-03-16T09:52:35.507Z,1.50
2023-03-16T09:55:08.650Z,1.48
2023-03-16T09:57:41.067Z,1.67
2023-03-16T10:00:18.022Z,2.60
2023-03-16T10:03:08.155Z,3.40
2023-03-16T10:05:38.510Z,1.50
2023-03-16T10:08:13.977Z,1.30
2023-03-16T10:11:23.101Z,2.05
2023-03-16T10:13:55.243Z,1.95
2023-03-16T10:16:28.368Z,2.40
2023-03-16T10:19:03.662Z,1.40
2023-03-16T10:21:35.088Z,1.50
2023-03-16T10:24:05.698Z,1.52
2023-03-16T10:26:40.759Z,1.92
2023-03-16T10:29:14.444Z,1.27
2023-03-16T10:31:42.918Z,2.10
2023-03-16T10:34:13.088Z,1.42
2023-03-16T10:36:44.910Z,1.75
2023-03-16T10:39:14.834Z,2.72
2023-03-16T10:41:45.198Z,1.65
2023-03-16T10:44:14.836Z,1.00
2023-03-16T10:46:48.151Z,1.15
2023-03-16T10:49:25.460Z,1.35
2023-03-16T10:51:55.483Z,1.20
2023-03-16T10:54:30.457Z,1.75
2023-03-16T10:56:58.908Z,1.42
2023-03-16T10:59:34.255Z,1.10
2023-03-16T11:02:03.619Z,1.90
2023-03-16T11:04:38.120Z,1.75
2023-03-16T11:07:11.258Z,1.00
2023-03-16T11:09:39.179Z,1.42
2023-03-16T11:12:16.041Z,1.27
2023-03-16T11:14:46.564Z,1.45
2023-03-16T11:17:18.626Z,1.27
2023-03-16T11:19:54.348Z,2.28
2023-03-16T11:22:25.116Z,1.20
2023-03-16T11:24:58.172Z,1.23
2023-03-16T11:27:31.348Z,1.58
2023-03-16T11:30:06.815Z,2.03
2023-03-16T11:32:38.115Z,1.50
2023-03-16T11:35:17.626Z,1.65
2023-03-16T11:37:59.127Z,2.08
2023-03-16T11:40:38.374Z,2.20
2023-03-16T11:43:17.161Z,1.20
2023-03-16T11:45:52.513Z,1.35
2023-03-16T11:48:33.251Z,1.35
2023-03-16T11:51:18.688Z,2.17
2023-03-16T11:54:01.853Z,1.57
2023-03-16T11:56:40.534Z,2.00
2023-03-16T11:59:51.962Z,1.88
2023-03-16T12:02:45.151Z,2.22
2023-03-16T12:05:36.447Z,2.70
2023-03-16T12:08:18.975Z,1.33
2023-03-16T12:10:52.652Z,1.42
2023-03-16T12:13:33.018Z,2.78
2023-03-16T12:16:05.697Z,1.73
2023-03-16T12:18:41.741Z,1.80
2023-03-16T12:21:15.487Z,2.10
2023-03-16T12:23:52.256Z,2.15
2023-03-16T12:26:23.993Z,2.55
2023-03-16T12:28:53.010Z,2.28
2023-03-16T12:31:24.954Z,2.58
2023-03-16T12:34:04.958Z,2.30
2023-03-16T12:37:03.738Z,2.28
2023-03-16T12:39:51.388Z,1.92
2023-03-16T12:42:35.740Z,3.40
2023-03-16T12:45:08.860Z,1.50
2023-03-16T12:47:46.334Z,2.20
2023-03-16T12:50:17.552Z,2.80
2023-03-16T12:52:47.285Z,2.03
2023-03-16T12:55:19.272Z,1.75
2023-03-16T12:57:51.386Z,1.92
2023-03-16T13:00:21.540Z,2.67
2023-03-16T13:02:55.519Z,1.33
2023-03-16T13:05:31.423Z,1.58
2023-03-16T13:08:08.928Z,1.83
2023-03-16T13:10:39.562Z,1.85
2023-03-16T13:13:12.928Z,3.20
2023-03-16T13:15:41.399Z,1.27
2023-03-16T13:18:24.843Z,2.17
2023-03-16T13:20:59.856Z,1.55
2023-03-16T13:23:30.064Z,1.38
2023-03-16T13:26:14.104Z,1.15
2023-03-16T13:28:43.271Z,1.50
2023-03-16T13:31:25.168Z,1.92
2023-03-16T13:33:56.780Z,2.05
2023-03-16T13:36:27.021Z,1.55
2023-03-16T13:39:06.687Z,1.77
2023-03-16T13:41:36.037Z,1.52
2023-03-16T13:44:05.974Z,2.25
2023-03-16T13:46:34.221Z,1.98
2023-03-16T13:49:02.101Z,1.35
2023-03-16T13:51:33.062Z,1.20
2023-03-16T13:54:06.264Z,1.63
2023-03-16T13:56:37.227Z,2.05
2023-03-16T13:59:06.048Z,1.90
2023-03-16T14:01:34.123Z,1.75
2023-03-16T14:04:08.388Z,1.60
2023-03-16T14:06:37.951Z,1.65
2023-03-16T14:09:07.946Z,1.23
2023-03-16T14:11:37.209Z,1.42
2023-03-16T14:14:15.838Z,1.92
2023-03-16T14:16:44.628Z,1.30
2023-03-16T14:19:19.224Z,1.00
2023-03-16T14:21:47.673Z,1.33
2023-03-16T14:24:30.677Z,1.67
2023-03-16T14:27:11.085Z,1.42
2023-03-16T14:29:43.540Z,1.73
2023-03-16T14:32:27.842Z,1.45
2023-03-16T14:35:03.640Z,1.00
2023-03-16T14:37:38.367Z,1.95
2023-03-16T14:40:08.847Z,1.45
2023-03-16T14:42:41.186Z,1.50
2023-03-16T14:45:13.945Z,1.67
2023-03-16T14:47:44.443Z,1.33
2023-03-16T14:50:17.200Z,1.30
2023-03-16T14:52:45.854Z,1.25
2023-03-16T14:55:16.284Z,1.33
2023-03-16T14:57:47.509Z,1.77
2023-03-16T15:00:17.437Z,1.75
2023-03-16T15:02:48.920Z,1.45
2023-03-16T15:05:22.671Z,1.20
2023-03-16T15:07:54.808Z,1.15
2023-03-16T15:10:26.746Z,1.17
2023-03-16T15:13:05.963Z,1.50
2023-03-16T15:15:34.500Z,1.42
2023-03-16T15:18:02.675Z,1.60
2023-03-16T15:20:37.207Z,1.40
2023-03-16T15:23:06.182Z,1.60
2023-03-16T15:25:37.401Z,1.45
2023-03-16T15:28:13.507Z,1.60
2023-03-16T15:30:45.164Z,1.25
2023-03-16T15:33:13.888Z,1.80
2023-03-16T15:35:43.701Z,1.38
2023-03-16T15:38:36.619Z,1.27
2023-03-16T15:41:10.715Z,1.60
2023-03-16T15:43:41.141Z,1.48
2023-03-16T15:46:09.977Z,1.55
2023-03-16T15:48:39.896Z,1.50
2023-03-16T15:51:13.483Z,1.48
2023-03-16T15:53:44.557Z,1.45
2023-03-16T15:56:14.877Z,1.05
2023-03-16T15:58:46.656Z,1.00
2023-03-16T16:01:22.768Z,1.38
2023-03-16T16:03:51.564Z,1.67
2023-03-16T16:06:19.550Z,1.35
2023-03-16T16:08:47.515Z,1.50
2023-03-16T16:11:17.884Z,1.25
2023-03-16T16:13:47.295Z,1.67
2023-03-16T16:16:17.789Z,1.35
2023-03-16T16:18:47.378Z,1.20
2023-03-16T16:21:18.213Z,1.30
2023-03-16T16:23:46.511Z,1.70
2023-03-16T16:26:26.286Z,1.65
2023-03-16T16:28:59.325Z,2.00
2023-03-16T16:31:30.695Z,1.75
2023-03-16T16:33:59.136Z,2.05
2023-03-16T16:36:27.566Z,2.35
2023-03-16T16:38:57.185Z,2.10
2023-03-16T16:41:28.937Z,1.70
2023-03-16T16:43:59.093Z,2.08
2023-03-16T16:46:29.383Z,2.08
2023-03-16T16:49:01.763Z,1.48
2023-03-16T16:51:30.881Z,2.05
2023-03-16T16:54:00.900Z,2.13
2023-03-16T16:56:31.197Z,1.65
2023-03-16T16:59:03.330Z,1.83
2023-03-16T17:01:34.539Z,2.20
2023-03-16T17:04:03.358Z,1.90
2023-03-16T17:06:31.375Z,1.20
2023-03-16T17:08:59.337Z,1.92
2023-03-16T17:11:29.948Z,2.88
2023-03-16T17:14:01.857Z,2.05
2023-03-16T17:16:31.972Z,3.28
2023-03-16T17:19:00.298Z,7.55
2023-03-16T17:21:30.268Z,5.65
2023-03-16T17:24:00.270Z,5.85
2023-03-16T17:26:31.377Z,6.18
2023-03-16T17:29:03.235Z,5.97
2023-03-16T17:31:36.509Z,8.40
2023-03-16T17:34:16.648Z,5.78
2023-03-16T17:36:44.752Z,5.93
2023-03-16T17:39:18.571Z,5.20
2023-03-16T17:41:47.539Z,6.70
2023-03-16T17:44:16.778Z,8.38
2023-03-16T17:46:44.770Z,9.65
2023-03-16T17:49:14.287Z,5.38
2023-03-16T17:51:43.379Z,7.70
2023-03-16T17:54:11.737Z,6.15
2023-03-16T17:56:40.549Z,7.25
2023-03-16T17:59:16.619Z,8.68
2023-03-16T18:01:47.394Z,4.68
2023-03-16T18:04:17.469Z,9.77
2023-03-16T18:06:46.942Z,8.05
2023-03-16T18:09:15.777Z,8.45
2023-03-16T18:11:47.335Z,5.82
2023-03-16T18:14:24.098Z,6.38
2023-03-16T18:16:54.411Z,5.22
2023-03-16T18:19:25.682Z,6.28
2023-03-16T18:21:54.557Z,5.07
2023-03-16T18:24:25.658Z,6.75
2023-03-16T18:26:53.759Z,4.93
2023-03-16T18:29:22.319Z,6.25
2023-03-16T18:32:00.857Z,6.68
2023-03-16T18:34:34.622Z,4.32
2023-03-16T18:37:06.149Z,4.18
2023-03-16T18:39:34.621Z,5.63
2023-03-16T18:42:03.075Z,5.10
2023-03-16T18:44:31.300Z,4.97
2023-03-16T18:47:03.817Z,5.78
2023-03-16T18:49:34.683Z,5.35
2023-03-16T18:52:02.950Z,4.68
2023-03-16T18:54:35.586Z,5.28
2023-03-16T18:57:05.576Z,4.90
2023-03-16T18:59:33.589Z,7.13
2023-03-16T19:02:03.029Z,6.43
2023-03-16T19:04:32.798Z,5.55
2023-03-16T19:07:00.777Z,5.55
2023-03-16T19:09:30.969Z,6.65
2023-03-16T19:11:59.566Z,5.38
2023-03-16T19:14:29.853Z,4.82
2023-03-16T19:16:57.779Z,6.88
2023-03-16T19:19:27.419Z,6.78
2023-03-16T19:21:58.208Z,4.00
2023-03-16T19:24:28.737Z,3.70
2023-03-16T19:26:57.462Z,3.80
2023-03-16T19:29:30.233Z,4.90
2023-03-16T19:31:59.058Z,3.67
2023-03-16T19:34:28.749Z,3.95
2023-03-16T19:36:57.449Z,4.10
2023-03-16T19:39:25.910Z,4.13
2023-03-16T19:41:57.139Z,5.15
2023-03-16T19:44:27.355Z,5.20
2023-03-16T19:46:56.164Z,5.25
2023-03-16T19:49:25.901Z,4.05
2023-03-16T19:52:01.384Z,3.67
2023-03-16T19:54:32.404Z,4.47
2023-03-16T19:57:05.150Z,4.10
2023-03-16T19:59:36.685Z,3.65
2023-03-16T20:02:23.505Z,4.07
2023-03-16T20:04:54.597Z,3.45
2023-03-16T20:07:24.043Z,5.20
2023-03-16T20:09:52.163Z,4.93
2023-03-16T20:12:24.518Z,5.00
2023-03-16T20:14:52.918Z,4.95
2023-03-16T20:17:23.832Z,4.55
2023-03-16T20:19:53.009Z,4.65
2023-03-16T20:22:24.241Z,3.22
2023-03-16T20:24:54.372Z,4.20
2023-03-16T20:27:24.261Z,3.35
2023-03-16T20:29:52.853Z,4.30
2023-03-16T20:32:22.971Z,4.18
2023-03-16T20:34:51.480Z,3.35
2023-03-16T20:37:24.675Z,2.60
2023-03-16T20:39:52.974Z,4.07
2023-03-16T20:42:25.824Z,3.35
2023-03-16T20:44:53.910Z,3.40
2023-03-16T20:47:24.033Z,3.03
2023-03-16T20:49:57.365Z,3.38
2023-03-16T20:52:30.874Z,3.95
2023-03-16T20:54:59.278Z,3.30
2023-03-16T20:57:29.610Z,3.88
2023-03-16T20:59:57.620Z,3.10
2023-03-16T21:02:28.544Z,2.95
2023-03-16T21:04:57.734Z,2.20
2023-03-16T21:07:29.206Z,2.60
2023-03-16T21:09:57.603Z,3.90
2023-03-16T21:12:30.508Z,2.47
2023-03-16T21:14:59.035Z,3.70
2023-03-16T21:17:31.529Z,2.60
2023-03-16T21:20:00.479Z,2.55
2023-03-16T21:22:31.405Z,2.40
2023-03-16T21:25:05.794Z,2.88
2023-03-16T21:27:37.256Z,4.72
2023-03-16T21:30:11.920Z,2.40
2023-03-16T21:32:42.148Z,3.63
2023-03-16T21:35:14.001Z,2.60
2023-03-16T21:37:43.316Z,3.20
2023-03-16T21:40:18.047Z,2.38
2023-03-16T21:42:47.017Z,2.90
2023-03-16T21:45:15.885Z,2.72
2023-03-16T21:47:44.348Z,2.42
2023-03-16T21:50:16.183Z,3.15
2023-03-16T21:52:45.565Z,2.60
2023-03-16T21:55:30.608Z,4.88
2023-03-16T21:57:59.841Z,3.35
2023-03-16T22:00:29.887Z,2.90
2023-03-16T22:03:00.088Z,2.00
2023-03-16T22:05:37.557Z,2.60
2023-03-16T22:08:15.982Z,1.80
2023-03-16T22:10:44.051Z,3.03
2023-03-16T22:13:12.465Z,2.67
2023-03-16T22:15:42.471Z,2.97
2023-03-16T22:18:29.059Z,2.15
2023-03-16T22:20:57.913Z,1.88
2023-03-16T22:23:31.790Z,2.10
2023-03-16T22:26:00.060Z,2.70
2023-03-16T22:28:28.128Z,3.35
2023-03-16T22:30:58.532Z,3.30
2023-03-16T22:33:29.769Z,2.58
2023-03-16T22:36:00.747Z,2.58
2023-03-16T22:38:30.406Z,4.53
2023-03-16T22:40:58.383Z,2.70
2023-03-16T22:43:31.867Z,4.47
2023-03-16T22:45:59.866Z,3.05
2023-03-16T22:48:29.131Z,3.08
2023-03-16T22:51:01.172Z,2.75
2023-03-16T22:53:35.079Z,2.72
2023-03-16T22:56:03.699Z,2.92
2023-03-16T22:58:34.892Z,2.95
2023-03-16T23:01:14.781Z,2.10
2023-03-16T23:03:43.112Z,3.28
2023-03-16T23:06:18.038Z,2.50
2023-03-16T23:08:47.659Z,2.20
2023-03-16T23:11:23.555Z,1.90
2023-03-16T23:13:53.411Z,1.95
2023-03-16T23:16:23.808Z,2.42
2023-03-16T23:18:52.351Z,2.80
2023-03-16T23:21:22.035Z,2.60
2023-03-16T23:24:02.939Z,2.20
2023-03-16T23:26:31.401Z,3.15
2023-03-16T23:28:59.690Z,3.60
2023-03-16T23:31:28.340Z,3.13
2023-03-16T23:33:56.843Z,2.40
2023-03-16T23:36:26.136Z,3.38
2023-03-16T23:38:55.422Z,2.70
2023-03-16T23:41:25.286Z,2.10
2023-03-16T23:43:54.150Z,2.55
2023-03-16T23:46:24.853Z,2.35
2023-03-16T23:48:55.618Z,4.15
2023-03-16T23:51:28.112Z,2.03
2023-03-16T23:53:57.874Z,2.65
2023-03-16T23:56:26.907Z,2.70
2023-03-16T23:58:55.753Z,3.10
